Latest Weather Observations for Lucinda

IDQ60801

Issued at 7:02 am EST Sunday 19 November 2017 (issued every 30 minutes, with the page automatically refreshed every 10 minutes)

About weather observations | Map of weather stations | Latest weather observations for QLD | Other Formats
Station Details ID: 032141 Name: LUCINDA POINT Lat: -18.52 Lon: 146.39 Height: 10.0 m
Data from the previous 72 hours. | See also: Recent months at Lucinda
Date/Time
EST
Temp
°C
App
Temp
°C
Dew
Point
°C
Rel
Hum
%
Delta-T
°C
Wind Press
QNH
hPa
Press
MSL
hPa
Rain since
9am
mm
Dir  Spd
km/h
Gust
km/h
Spd
kts
Gust
kts
19/07:00am 26.1 26.2 20.4 71 3.7 NE 20 26 11 14 1011.6 1011.5 0.0
19/06:30am 25.8 25.4 19.4 67 4.1 ENE 20 26 11 14 1011.2 1011.1 0.0
19/06:00am 25.5 24.8 19.6 70 3.8 NE 22 28 12 15 1010.9 1010.8 0.0
19/05:30am 25.7 25.9 20.5 73 3.4 NE 20 24 11 13 1010.5 1010.4 0.0
19/05:00am 25.6 25.9 20.4 73 3.4 ENE 19 24 10 13 1010.3 1010.2 0.0
19/04:30am 25.4 25.5 20.0 72 3.5 ENE 19 24 10 13 1010.1 1010.0 0.0
19/04:00am 25.3 25.4 19.9 72 3.5 ENE 19 24 10 13 1009.9 1009.8 0.0
19/03:30am 25.3 25.5 20.1 73 3.4 ENE 19 24 10 13 1009.7 1009.6 0.0
19/03:00am 25.5 25.8 20.5 74 3.3 NE 19 22 10 12 1009.6 1009.5 0.0
19/02:30am 25.3 25.1 19.7 71 3.6 NE 20 24 11 13 1009.6 1009.5 0.0
19/02:00am 25.4 25.7 20.4 74 3.3 NE 19 20 10 11 1009.5 1009.4 0.0
19/01:30am 25.5 25.6 19.9 71 3.6 NE 19 22 10 12 1009.7 1009.6 0.0
19/01:00am 25.6 25.6 20.2 72 3.5 NE 20 22 11 12 1010.0 1009.9 0.0
19/12:30am 25.6 25.9 20.8 75 3.2 NE 20 24 11 13 1010.2 1010.1 0.0
19/12:00am 25.5 25.2 20.3 73 3.4 NE 22 24 12 13 1010.6 1010.5 0.0
 
Date/Time
EST
Temp
°C
App
Temp
°C
Dew
Point
°C
Rel
Hum
%
Delta-T
°C
Wind Press
QNH
hPa
Press
MSL
hPa
Rain since
9am
mm
Dir  Spd
km/h
Gust
km/h
Spd
kts
Gust
kts
18/11:30pm 25.5 25.1 20.1 72 3.5 NE 22 28 12 15 1010.9 1010.8 0.0
18/11:00pm 25.6 25.3 20.4 73 3.4 NE 22 26 12 14 1011.1 1011.0 0.0
18/10:30pm 25.6 25.0 20.4 73 3.4 NNE 24 28 13 15 1011.2 1011.1 0.0
18/10:00pm 25.5 24.7 20.1 72 3.5 NE 24 28 13 15 1011.2 1011.1 0.0
18/09:30pm 25.6 25.0 20.4 73 3.4 NNE 24 28 13 15 1010.7 1010.6 0.0
18/09:00pm 25.8 25.2 20.4 72 3.5 NE 24 28 13 15 1010.6 1010.5 0.0
18/08:30pm 25.8 24.8 20.4 72 3.5 NE 26 30 14 16 1010.4 1010.3 0.0
18/08:00pm 25.7 25.1 19.8 70 3.8 ENE 22 26 12 14 1010.3 1010.2 0.0
18/07:30pm 25.5 24.4 19.4 69 3.9 NE 24 28 13 15 1010.2 1010.1 0.0
18/07:00pm 25.6 25.7 20.4 73 3.4 ENE 20 28 11 15 1010.1 1010.0 0.0
18/06:30pm 25.7 25.8 20.3 72 3.5 E 20 26 11 14 1010.1 1010.0 0.0
18/06:00pm 25.7 24.9 20.0 71 3.7 ENE 24 30 13 16 1010.0 1009.9 0.0
18/05:30pm 26.0 25.5 20.8 73 3.4 ENE 24 35 13 19 1009.7 1009.6 0.0
18/05:00pm 26.1 25.1 20.4 71 3.7 NE 26 32 14 17 1009.7 1009.6 0.0
18/04:30pm 26.1 25.0 20.2 70 3.8 NE 26 30 14 16 1010.0 1009.9 0.0
18/04:00pm 26.1 25.0 19.5 67 4.3 NE 24 30 13 16 1010.2 1010.1 0.0
18/03:30pm 26.4 26.4 19.8 67 4.3 E 19 24 10 13 1010.5 1010.4 0.0
18/03:00pm 26.4 26.2 19.3 65 4.6 E 19 24 10 13 1010.6 1010.5 0.0
18/02:30pm 26.5 26.4 19.6 66 4.5 ENE 19 24 10 13 1010.7 1010.6 0.0
18/02:00pm 26.6 26.7 19.2 64 4.8 E 17 22 9 12 1011.0 1010.9 0.0
18/01:30pm 26.6 26.6 19.0 63 4.9 ENE 17 20 9 11 1011.3 1011.2 0.0
18/01:00pm 26.7 27.4 19.6 65 4.6 E 15 20 8 11 1011.6 1011.5 0.0
18/12:30pm 26.6 27.0 19.0 63 4.9 ESE 15 22 8 12 1011.9 1011.8 0.0
18/12:00pm 26.5 27.2 19.6 66 4.5 E 15 20 8 11 1012.1 1012.0 0.0
18/11:30am 26.9 27.7 19.8 65 4.6 ESE 15 20 8 11 1012.5 1012.4 0.0
18/11:00am 26.9 27.5 19.5 64 4.8 ESE 15 24 8 13 1012.8 1012.7 0.0
18/10:30am 26.8 27.1 19.7 65 4.6 ESE 17 22 9 12 1013.0 1012.9 0.0
18/10:00am 27.1 27.3 19.4 62 5.0 ESE 17 20 9 11 1012.9 1012.8 0.0
18/09:30am 27.2 28.4 19.8 64 4.8 SE 13 20 7 11 1012.9 1012.8 0.0
18/09:00am 26.9 28.1 20.0 66 4.5 ESE 13 20 7 11 1012.9 1012.8 0.0
18/08:30am 26.9 27.5 19.5 64 4.8 ESE 15 24 8 13 1012.7 1012.6 0.0
18/08:00am 26.6 27.7 19.7 66 4.5 SE 13 20 7 11 1012.3 1012.2 0.0
18/07:30am 26.3 27.5 19.9 68 4.2 SE 13 22 7 12 1011.9 1011.8 0.0
18/07:00am 26.0 26.4 19.9 69 4.0 ESE 17 24 9 13 1011.7 1011.6 0.0
18/06:30am 25.6 25.9 19.5 69 3.9 ESE 17 26 9 14 1011.5 1011.4 0.0
18/06:00am 25.2 25.3 20.0 73 3.4 ESE 19 30 10 16 1011.1 1011.0 0.0
18/05:30am 25.0 25.5 20.0 74 3.2 ESE 17 26 9 14 1010.9 1010.8 0.0
18/05:00am 25.1 26.0 20.1 74 3.2 ESE 15 24 8 13 1010.8 1010.7 0.0
18/04:30am 25.2 26.7 20.5 75 3.1 SE 13 22 7 12 1010.7 1010.6 0.0
18/04:00am 25.1 26.0 20.1 74 3.2 SE 15 22 8 12 1010.6 1010.5 0.0
18/03:30am 25.1 26.0 20.1 74 3.2 ESE 15 24 8 13 1010.6 1010.5 0.0
18/03:00am 25.0 26.2 20.0 74 3.2 ESE 13 22 7 12 1010.8 1010.7 0.0
18/02:30am 25.2 26.4 20.0 73 3.4 ESE 13 20 7 11 1010.8 1010.7 0.0
18/02:00am 25.2 26.1 20.0 73 3.4 ESE 15 24 8 13 1010.9 1010.8 0.0
18/01:30am 25.2 26.4 19.8 72 3.5 SE 13 22 7 12 1011.4 1011.3 0.0
18/01:00am 25.2 26.0 19.8 72 3.5 ESE 15 22 8 12 1011.6 1011.5 0.0
18/12:30am 25.3 26.5 19.9 72 3.5 ESE 13 20 7 11 1012.3 1012.2 0.0
18/12:00am 25.3 26.5 19.9 72 3.5 SE 13 20 7 11 1012.4 1012.3 0.0
 
Date/Time
EST
Temp
°C
App
Temp
°C
Dew
Point
°C
Rel
Hum
%
Delta-T
°C
Wind Press
QNH
hPa
Press
MSL
hPa
Rain since
9am
mm
Dir  Spd
km/h
Gust
km/h
Spd
kts
Gust
kts
17/11:30pm 25.3 25.9 19.4 70 3.8 ESE 15 20 8 11 1012.7 1012.6 0.0
17/11:00pm 25.4 26.4 19.5 70 3.8 SE 13 20 7 11 1012.9 1012.8 0.0
17/10:30pm 25.4 25.3 19.5 70 3.8 ESE 19 28 10 15 1012.7 1012.6 0.0
17/10:00pm 25.4 25.2 19.3 69 3.9 ESE 19 26 10 14 1012.9 1012.8 0.0
17/09:30pm 25.6 25.2 19.3 68 4.0 ESE 20 28 11 15 1012.6 1012.5 0.0
17/09:00pm 25.6 25.4 18.5 65 4.5 ESE 17 26 9 14 1012.9 1012.8 0.0
17/08:30pm 25.4 25.1 19.1 68 4.0 ESE 19 26 10 14 1012.5 1012.4 0.0
17/08:00pm 25.3 25.1 19.4 70 3.8 ESE 19 26 10 14 1012.1 1012.0 0.0
17/07:30pm 25.4 25.1 19.5 70 3.8 ESE 20 28 11 15 1011.9 1011.8 0.0
17/07:00pm 25.4 24.8 18.8 67 4.2 E 20 24 11 13 1011.7 1011.6 0.0
17/06:30pm 25.6 25.1 19.0 67 4.2 E 20 28 11 15 1011.5 1011.4 0.0
17/06:00pm 25.7 23.6 17.1 59 5.4 ESE 24 30 13 16 1011.2 1011.1 0.0
17/05:30pm 26.1 24.1 18.2 61 5.0 ESE 26 33 14 18 1011.3 1011.2 0.0
17/05:00pm 26.7 25.7 18.8 62 5.1 ESE 22 35 12 19 1011.3 1011.2 0.0
17/04:30pm 26.2 25.5 18.3 61 5.0 SE 19 35 10 19 1011.1 1011.0 0.0
17/04:00pm 26.1 26.0 18.8 64 4.7 ESE 17 28 9 15 1011.3 1011.2 0.0
17/03:30pm 26.7 26.3 19.3 64 4.8 SE 20 32 11 17 1011.4 1011.3 0.0
17/03:00pm 27.1 27.6 20.0 65 4.6 SE 17 26 9 14 1011.5 1011.4 0.0
17/02:30pm 26.6 26.7 19.2 64 4.8 ESE 17 32 9 17 1011.7 1011.6 0.0
17/02:00pm 26.8 27.1 19.7 65 4.6 SSE 17 30 9 16 1011.8 1011.7 0.0
17/01:30pm 26.8 27.0 19.4 64 4.8 SE 17 26 9 14 1012.1 1012.0 0.0
17/01:00pm 26.9 27.4 19.3 63 4.9 SE 15 26 8 14 1012.5 1012.4 0.0
17/12:30pm 26.9 27.5 19.5 64 4.8 SE 15 26 8 14 1012.8 1012.7 0.0
17/12:00pm 27.0 28.0 19.4 63 4.9 SE 13 22 7 12 1013.1 1013.0 0.0
17/11:30am 27.0 27.8 19.1 62 5.1 ESE 13 24 7 13 1013.2 1013.1 0.0
17/11:00am 27.0 27.7 18.8 60 5.3 ESE 13 20 7 11 1013.6 1013.5 0.0
17/10:30am 27.1 28.0 19.2 62 5.1 SE 13 24 7 13 1013.7 1013.6 0.0
17/10:00am 26.8 26.9 19.2 63 4.9 SE 17 28 9 15 1013.7 1013.6 0.0
17/09:30am 26.7 27.0 19.6 65 4.6 SE 17 24 9 13 1013.9 1013.8 0.0
17/09:00am 26.8 27.0 19.4 64 4.8 SE 17 24 9 13 1014.0 1013.9 0.0
17/08:30am 26.6 27.1 19.2 64 4.8 SE 15 28 8 15 1013.8 1013.7 0.0
17/08:00am 26.4 26.0 18.8 63 4.9 ESE 19 26 10 14 1013.5 1013.4 0.0
17/07:30am 26.0 25.7 19.2 66 4.4 ESE 19 28 10 15 1013.3 1013.2 0.0
17/07:00am 26.0 25.7 19.2 66 4.4 ESE 19 28 10 15 1013.0 1012.9 0.0
17/06:30am 25.4 25.6 19.3 69 3.9 SE 17 26 9 14 1012.6 1012.5 0.0
17/06:00am 25.2 25.3 19.1 69 3.9 SE 17 30 9 16 1012.1 1012.0 0.0
17/05:30am 25.1 25.4 19.5 71 3.6 ESE 17 28 9 15 1011.7 1011.6 0.0
17/05:00am 25.1 25.8 19.7 72 3.5 SSE 15 28 8 15 1011.8 1011.7 0.0
17/04:30am 25.0 25.2 19.4 71 3.6 ESE 17 26 9 14 1011.6 1011.5 0.0
17/04:00am 25.1 25.5 19.9 73 3.4 SE 17 28 9 15 1011.5 1011.4 0.0
17/03:30am 25.1 26.0 20.1 74 3.2 SE 15 24 8 13 1011.5 1011.4 0.0
17/03:00am 25.3 26.4 20.5 75 3.1 ESE 15 24 8 13 1011.6 1011.5 0.0
17/02:30am 25.3 26.3 20.3 74 3.3 SE 15 26 8 14 1011.6 1011.5 0.0
17/02:00am 25.3 25.9 20.3 74 3.3 SE 17 26 9 14 1011.6 1011.5 0.0
17/01:30am 25.2 25.9 20.5 75 3.1 SE 17 30 9 16 1011.7 1011.6 0.0
17/01:00am 25.4 25.8 20.6 75 3.1 ESE 19 33 10 18 1012.0 1011.9 0.0
17/12:30am 25.0 25.5 20.0 74 3.2 ESE 17 26 9 14 1012.3 1012.2 0.0
17/12:00am 25.4 25.7 20.4 74 3.3 ESE 19 26 10 14 1012.4 1012.3 0.0
 
Date/Time
EST
Temp
°C
App
Temp
°C
Dew
Point
°C
Rel
Hum
%
Delta-T
°C
Wind Press
QNH
hPa
Press
MSL
hPa
Rain since
9am
mm
Dir  Spd
km/h
Gust
km/h
Spd
kts
Gust
kts
16/11:30pm 25.4 25.6 20.6 75 3.1 ESE 20 30 11 16 1012.6 1012.5 0.0
16/11:00pm 25.5 25.3 20.5 74 3.3 ESE 22 32 12 17 1012.9 1012.8 0.0
16/10:30pm 25.8 26.2 21.0 75 3.2 ESE 20 30 11 16 1012.9 1012.8 0.0
16/10:00pm 25.6 25.6 20.2 72 3.5 ESE 20 28 11 15 1013.0 1012.9 0.0
16/09:30pm 25.6 24.9 20.2 72 3.5 ESE 24 30 13 16 1012.7 1012.6 0.0
16/09:00pm 25.5 24.4 20.3 73 3.4 ESE 26 33 14 18 1012.4 1012.3 0.0
16/08:30pm 25.8 25.3 20.8 74 3.3 ESE 24 32 13 17 1012.3 1012.2 0.0
16/08:00pm 25.7 24.2 20.3 72 3.5 ESE 28 33 15 18 1012.1 1012.0 0.0
16/07:30pm 25.6 25.9 20.8 75 3.2 ESE 20 28 11 15 1011.9 1011.8 0.0
16/07:00pm 25.6 25.8 20.6 74 3.3 ESE 20 28 11 15 1011.7 1011.6 0.0
16/06:30pm 25.6 26.1 20.8 75 3.2 ESE 19 24 10 13 1011.7 1011.6 0.0
16/06:00pm 26.4 28.0 20.7 71 3.7 SE 13 22 7 12 1011.6 1011.5 0.0
16/05:30pm 26.4 26.5 20.0 68 4.2 ESE 19 24 10 13 1011.4 1011.3 0.0
16/05:00pm 26.6 27.4 20.7 70 3.9 ESE 17 26 9 14 1011.1 1011.0 0.0
16/04:30pm 26.8 27.4 20.2 67 4.3 ESE 17 26 9 14 1011.0 1010.9 0.0
16/04:00pm 26.7 27.3 20.3 68 4.2 ESE 17 20 9 11 1011.0 1010.9 0.0
16/03:30pm 26.7 27.3 20.3 68 4.2 ESE 17 22 9 12 1011.0 1010.9 0.0
16/03:00pm 26.2 26.2 20.1 69 4.0 E 20 26 11 14 1011.2 1011.1 0.0
16/02:30pm 27.2 28.1 20.0 64 4.7 SE 15 22 8 12 1011.3 1011.2 0.0
16/02:00pm 27.5 28.3 19.8 63 5.0 ESE 15 22 8 12 1011.5 1011.4 0.0
16/01:30pm 27.3 27.9 19.4 62 5.1 SE 15 20 8 11 1011.9 1011.8 0.0
16/01:00pm 26.9 27.4 19.3 63 4.9 SE 15 22 8 12 1012.2 1012.1 0.0
16/12:30pm 27.6 28.7 19.7 62 5.1 SE 13 20 7 11 1012.6 1012.5 0.0
16/12:00pm 27.3 28.1 19.1 61 5.3 SE 13 17 7 9 1012.8 1012.7 0.0
16/11:30am 27.3 28.3 19.4 62 5.1 SE 13 19 7 10 1013.3 1013.2 0.0
16/11:00am 27.1 28.1 19.4 62 5.0 SE 13 20 7 11 1013.7 1013.6 0.0
16/10:30am 27.5 28.7 19.0 59 5.5 ESE 11 17 6 9 1014.0 1013.9 0.0
16/10:00am 27.7 28.9 19.0 59 5.6 ESE 11 17 6 9 1014.1 1014.0 0.0
16/09:30am 27.2 28.9 19.3 62 5.1 SSE 9 19 5 10 1014.1 1014.0 0.0
16/09:00am 27.1 28.8 19.4 62 5.0 ESE 9 19 5 10 1013.9 1013.8 0.2
16/08:30am 26.7 28.1 19.6 65 4.6 ESE 11 17 6 9 1013.8 1013.7 0.2
16/08:00am 25.7 26.6 19.3 67 4.1 SE 13 22 7 12 1013.6 1013.5 0.2
16/07:30am 26.3 26.7 18.9 63 4.7 SE 15 22 8 12 1013.4 1013.3 0.2

Other Formats:

Comma delimited format used in spreadsheet applications
http://www.bom.gov.au/fwo/IDQ60801/IDQ60801.94295.axf

JavaScript Object Notation format (JSON) in row-major order
http://www.bom.gov.au/fwo/IDQ60801/IDQ60801.94295.json